Time;durP1;ratioP1;P1;durP2;ratioP2;P2;SDS_P1;SDS_P2;PMS_P1;PMS_P2;Temp;Humidity;BMP_temperature;BMP_pressure;BME280_temperature;BME280_humidity;BME280_pressure;Samples;Min_cycle;Max_cycle;Signal;HPM_P1;HPM_P2
2022/04/13 00:00:17;;;;;;;9.55;6.22;;;13.70;99.90;;;;;;5072124;28;20045;-81
2022/04/13 00:02:43;;;;;;;9.63;6.10;;;13.70;99.90;;;;;;5072982;28;20051;-81
2022/04/13 00:05:09;;;;;;;8.18;6.50;;;13.60;99.90;;;;;;5056058;28;20044;-80
2022/04/13 00:07:35;;;;;;;8.10;6.38;;;13.60;99.90;;;;;;5072304;28;20044;-80
2022/04/13 00:10:01;;;;;;;9.98;6.30;;;13.60;99.90;;;;;;5072061;28;20396;-80
2022/04/13 00:12:27;;;;;;;9.57;6.65;;;13.50;99.90;;;;;;5089298;28;20059;-80
2022/04/13 00:14:52;;;;;;;8.07;6.15;;;13.50;99.90;;;;;;5072238;28;20481;-80
2022/04/13 00:17:18;;;;;;;12.18;6.40;;;13.40;99.90;;;;;;5073200;28;20052;-81
2022/04/13 00:19:44;;;;;;;8.23;6.72;;;13.40;99.90;;;;;;5073013;28;20056;-79
2022/04/13 00:22:10;;;;;;;11.50;6.70;;;13.30;99.90;;;;;;5038267;28;20052;-81
2022/04/13 00:24:35;;;;;;;7.50;6.78;;;13.20;99.90;;;;;;5072112;28;20051;-81
2022/04/13 00:27:01;;;;;;;8.65;6.93;;;13.10;99.90;;;;;;5071865;28;20083;-82
2022/04/13 00:29:30;;;;;;;9.48;6.80;;;13.10;99.90;;;;;;5071202;28;20052;-81
2022/04/13 00:31:58;;;;;;;8.35;6.57;;;13.10;99.90;;;;;;5055622;28;20484;-81
2022/04/13 00:34:24;;;;;;;9.10;6.72;;;13.10;99.90;;;;;;5071297;28;20396;-80
2022/04/13 00:36:49;;;;;;;10.65;6.70;;;13.00;99.90;;;;;;5072185;28;20070;-81
2022/04/13 00:39:15;;;;;;;10.55;6.75;;;13.00;99.90;;;;;;5087985;28;20041;-81
2022/04/13 00:41:40;;;;;;;8.50;6.70;;;13.00;99.90;;;;;;5071566;28;20457;-80
2022/04/13 00:44:08;;;;;;;8.63;6.40;;;13.00;99.90;;;;;;5071341;28;20540;-81
2022/04/13 00:46:33;;;;;;;8.55;6.28;;;13.00;99.90;;;;;;5071634;28;20147;-79
2022/04/13 00:48:59;;;;;;;9.07;6.78;;;12.90;99.90;;;;;;5071742;28;20132;-82
2022/04/13 00:51:25;;;;;;;8.13;6.55;;;13.00;99.90;;;;;;5038442;28;20048;-81
2022/04/13 00:53:51;;;;;;;10.70;6.55;;;13.00;99.90;;;;;;5054618;28;20245;-79
2022/04/13 00:56:21;;;;;;;9.90;6.80;;;12.90;99.90;;;;;;5055051;28;20152;-80
2022/04/13 00:58:46;;;;;;;9.40;6.90;;;13.00;99.90;;;;;;5071973;28;20044;-81
2022/04/13 01:01:12;;;;;;;8.85;7.03;;;13.00;99.90;;;;;;5070412;28;20055;-79
2022/04/13 01:03:38;;;;;;;10.05;7.15;;;13.00;99.90;;;;;;5071983;28;20369;-80
2022/04/13 01:06:03;;;;;;;9.43;7.38;;;13.00;99.90;;;;;;5054240;28;20044;-80
2022/04/13 01:08:31;;;;;;;8.82;6.65;;;13.00;99.90;;;;;;5071092;28;20081;-81
2022/04/13 01:10:56;;;;;;;11.98;7.65;;;12.90;99.90;;;;;;5054601;28;20408;-81
2022/04/13 01:13:22;;;;;;;14.30;7.32;;;12.90;99.90;;;;;;5070411;28;20048;-80
2022/04/13 01:15:48;;;;;;;10.05;7.35;;;12.80;99.90;;;;;;5087888;28;20075;-80
2022/04/13 01:18:14;;;;;;;14.02;8.00;;;12.80;99.90;;;;;;5070657;28;20048;-80
2022/04/13 01:20:48;;;;;;;12.57;7.75;;;12.80;99.90;;;;;;5056379;28;20061;-79
2022/04/13 01:23:14;;;;;;;9.07;7.63;;;12.80;99.90;;;;;;5080859;28;20048;-80
2022/04/13 01:25:47;;;;;;;12.45;8.40;;;12.80;99.90;;;;;;5078094;28;20054;-80
2022/04/13 01:28:13;;;;;;;10.10;7.90;;;12.80;99.90;;;;;;5072343;28;20055;-80
2022/04/13 01:30:39;;;;;;;8.82;7.93;;;12.80;99.90;;;;;;5072828;28;20040;-80
2022/04/13 01:33:04;;;;;;;12.07;8.05;;;12.70;99.90;;;;;;5087933;28;20045;-80
2022/04/13 01:35:30;;;;;;;12.00;8.85;;;12.70;99.90;;;;;;5053839;28;20045;-81
2022/04/13 01:37:56;;;;;;;13.35;8.50;;;12.80;99.90;;;;;;5071984;28;20055;-80
2022/04/13 01:40:22;;;;;;;12.07;8.80;;;12.80;99.90;;;;;;5070160;28;20037;-81
2022/04/13 01:42:49;;;;;;;9.70;8.35;;;12.90;99.90;;;;;;5070801;28;20084;-80
2022/04/13 01:45:19;;;;;;;11.90;8.48;;;12.80;99.90;;;;;;5071308;28;20100;-81
2022/04/13 01:47:48;;;;;;;11.00;8.68;;;12.80;99.90;;;;;;5071898;28;20071;-81
2022/04/13 01:50:16;;;;;;;12.65;9.13;;;12.80;99.90;;;;;;5053738;28;20084;-81
2022/04/13 01:52:42;;;;;;;11.57;8.52;;;12.80;99.90;;;;;;5070513;28;20135;-80
2022/04/13 01:55:08;;;;;;;10.32;8.65;;;12.80;99.90;;;;;;5086787;28;20056;-81
2022/04/13 01:57:35;;;;;;;15.57;9.32;;;12.80;99.90;;;;;;5054080;28;20078;-81
2022/04/13 02:00:01;;;;;;;13.82;8.93;;;12.70;99.90;;;;;;5053671;28;20392;-81
2022/04/13 02:02:26;;;;;;;9.80;8.52;;;12.70;99.90;;;;;;5071093;28;20052;-81
2022/04/13 02:04:53;;;;;;;14.25;9.45;;;12.70;99.90;;;;;;5071289;28;20044;-80
2022/04/13 02:07:18;;;;;;;10.95;8.85;;;12.70;99.90;;;;;;5068755;28;20045;-81
2022/04/13 02:09:44;;;;;;;14.65;9.23;;;12.70;99.90;;;;;;5071357;28;20469;-81
2022/04/13 02:12:10;;;;;;;10.70;9.10;;;12.70;99.90;;;;;;5069632;28;20091;-80
2022/04/13 02:14:36;;;;;;;12.70;9.70;;;12.70;99.90;;;;;;5070215;28;20469;-80
2022/04/13 02:17:02;;;;;;;11.65;9.13;;;12.70;99.90;;;;;;5070683;28;20433;-81
2022/04/13 02:19:27;;;;;;;13.48;9.88;;;12.60;99.90;;;;;;5069328;28;20056;-80
2022/04/13 02:21:53;;;;;;;14.63;10.23;;;12.60;99.90;;;;;;5070439;28;20082;-80
2022/04/13 02:24:19;;;;;;;13.95;10.20;;;12.60;99.90;;;;;;5069506;28;20116;-80
2022/04/13 02:26:44;;;;;;;12.13;9.63;;;12.60;99.90;;;;;;5071231;28;20049;-81
2022/04/13 02:29:10;;;;;;;13.57;10.05;;;12.50;99.90;;;;;;5071655;28;20049;-81
2022/04/13 02:31:36;;;;;;;14.32;10.07;;;12.50;99.90;;;;;;5070836;28;20135;-81
2022/04/13 02:34:04;;;;;;;13.43;9.88;;;12.50;99.90;;;;;;5070703;28;20121;-81
2022/04/13 02:36:33;;;;;;;12.32;10.07;;;12.50;99.90;;;;;;5073034;28;20105;-80
2022/04/13 02:38:59;;;;;;;13.85;11.00;;;12.40;99.90;;;;;;5054925;28;20115;-81
2022/04/13 02:41:24;;;;;;;13.88;10.38;;;12.40;99.90;;;;;;5071582;28;20039;-81
2022/04/13 02:43:50;;;;;;;13.15;10.18;;;12.40;99.90;;;;;;5070409;28;20052;-81
2022/04/13 02:46:16;;;;;;;15.52;10.60;;;12.30;99.90;;;;;;5071297;28;20052;-80
2022/04/13 02:48:41;;;;;;;15.60;11.05;;;12.30;99.90;;;;;;5071423;28;20428;-80
2022/04/13 02:51:07;;;;;;;18.83;11.43;;;12.30;99.90;;;;;;5053913;28;20052;-80
2022/04/13 02:53:33;;;;;;;16.70;10.93;;;12.30;99.90;;;;;;5069889;28;20181;-80
2022/04/13 02:55:59;;;;;;;21.70;11.43;;;12.30;99.90;;;;;;5070756;28;20045;-81
2022/04/13 02:58:24;;;;;;;18.17;11.45;;;12.30;99.90;;;;;;5052355;28;20045;-80
2022/04/13 03:00:50;;;;;;;17.60;12.35;;;12.20;99.90;;;;;;5069565;28;20053;-81
2022/04/13 03:03:16;;;;;;;17.52;11.40;;;12.30;99.90;;;;;;5052492;28;20045;-80
2022/04/13 03:05:43;;;;;;;18.42;11.82;;;12.20;99.90;;;;;;5069428;28;20489;-80
2022/04/13 03:08:08;;;;;;;17.38;12.02;;;12.20;99.90;;;;;;5069190;28;20542;-81
2022/04/13 03:10:34;;;;;;;17.63;12.25;;;12.20;99.90;;;;;;5069469;28;20048;-81
2022/04/13 03:13:00;;;;;;;16.88;11.70;;;12.10;99.90;;;;;;5068818;28;20044;-81
2022/04/13 03:15:25;;;;;;;18.48;11.20;;;12.10;99.90;;;;;;5051582;28;20052;-81
2022/04/13 03:17:51;;;;;;;14.68;11.68;;;12.00;99.90;;;;;;5069432;28;20055;-80
2022/04/13 03:20:18;;;;;;;15.60;12.20;;;11.90;99.90;;;;;;5072085;28;20094;-81
2022/04/13 03:22:44;;;;;;;15.32;11.88;;;11.90;99.90;;;;;;5056553;28;20386;-81
2022/04/13 03:25:09;;;;;;;20.17;13.00;;;11.90;99.90;;;;;;5072529;28;20056;-81
2022/04/13 03:27:37;;;;;;;19.40;12.68;;;11.80;99.90;;;;;;5071754;28;20052;-79
2022/04/13 03:30:04;;;;;;;19.65;13.05;;;11.80;99.90;;;;;;5073657;28;20174;-81
2022/04/13 03:32:36;;;;;;;22.75;12.80;;;11.80;99.90;;;;;;5071791;28;20044;-81
2022/04/13 03:35:02;;;;;;;16.42;12.88;;;11.80;99.90;;;;;;5072331;28;20365;-81
2022/04/13 03:37:27;;;;;;;20.08;13.30;;;11.80;99.90;;;;;;5071842;28;20052;-81
2022/04/13 03:39:53;;;;;;;18.63;12.45;;;11.80;99.90;;;;;;5055083;28;20074;-81
2022/04/13 03:42:19;;;;;;;18.90;13.60;;;11.80;99.90;;;;;;5057583;28;20094;-81
2022/04/13 03:44:44;;;;;;;19.95;13.65;;;11.90;99.90;;;;;;5083166;28;20056;-81
2022/04/13 03:47:10;;;;;;;22.08;13.30;;;11.90;99.90;;;;;;5080816;28;20080;-80
2022/04/13 03:49:36;;;;;;;24.30;13.93;;;11.90;99.90;;;;;;5074388;28;20056;-80
2022/04/13 03:52:01;;;;;;;19.00;12.57;;;12.00;99.90;;;;;;5074788;28;20037;-80
2022/04/13 03:54:27;;;;;;;19.92;12.80;;;12.00;99.90;;;;;;5072938;28;20045;-80
2022/04/13 03:56:53;;;;;;;19.70;12.70;;;12.10;99.90;;;;;;5056155;28;20049;-80
2022/04/13 03:59:20;;;;;;;17.73;12.93;;;12.10;99.90;;;;;;5073530;28;20045;-80
2022/04/13 04:01:46;;;;;;;20.75;13.02;;;12.20;99.90;;;;;;5071955;28;20113;-80
2022/04/13 04:04:12;;;;;;;20.95;13.05;;;12.20;99.90;;;;;;5071542;28;20495;-80
2022/04/13 04:06:38;;;;;;;20.00;12.95;;;12.20;99.90;;;;;;5072858;28;20048;-80
2022/04/13 04:09:04;;;;;;;22.58;14.15;;;12.30;99.90;;;;;;5072871;28;20090;-81
2022/04/13 04:11:29;;;;;;;20.75;13.48;;;12.30;99.90;;;;;;5071411;28;20076;-80
2022/04/13 04:13:55;;;;;;;17.38;13.55;;;12.30;99.90;;;;;;5038409;28;20052;-81
2022/04/13 04:16:21;;;;;;;22.88;14.52;;;12.30;99.90;;;;;;5072345;28;20048;-81
2022/04/13 04:18:48;;;;;;;20.73;14.60;;;12.30;99.90;;;;;;5072200;28;20140;-81
2022/04/13 04:21:17;;;;;;;20.20;13.93;;;12.30;99.90;;;;;;5055211;28;20060;-80
2022/04/13 04:23:43;;;;;;;23.52;14.50;;;12.30;99.90;;;;;;5072196;28;20186;-80
2022/04/13 04:26:09;;;;;;;18.30;14.05;;;12.30;99.90;;;;;;5056191;28;20101;-81
2022/04/13 04:28:35;;;;;;;19.52;14.90;;;12.40;99.90;;;;;;5072107;28;20059;-80
2022/04/13 04:31:01;;;;;;;22.08;15.10;;;12.30;99.90;;;;;;5072839;28;20044;-81
2022/04/13 04:33:26;;;;;;;19.25;14.55;;;12.30;99.90;;;;;;5055415;28;20044;-81
2022/04/13 04:35:52;;;;;;;22.45;15.82;;;12.30;99.90;;;;;;5088444;28;20055;-81
2022/04/13 04:38:19;;;;;;;24.52;14.85;;;12.30;99.90;;;;;;5071530;28;20114;-81
2022/04/13 04:40:44;;;;;;;19.77;14.30;;;12.30;99.90;;;;;;5054342;28;20045;-80
2022/04/13 04:43:10;;;;;;;23.95;15.95;;;12.20;99.90;;;;;;5038640;28;20384;-81
2022/04/13 04:45:36;;;;;;;23.30;15.75;;;12.20;99.90;;;;;;5070005;28;20178;-81
2022/04/13 04:48:04;;;;;;;24.38;15.75;;;12.20;99.90;;;;;;5072669;28;20128;-81
2022/04/13 04:50:30;;;;;;;25.58;15.27;;;12.10;99.90;;;;;;5070320;28;20044;-80
2022/04/13 04:52:56;;;;;;;25.10;15.32;;;12.10;99.90;;;;;;5071532;28;20159;-81
2022/04/13 04:55:22;;;;;;;23.98;15.90;;;12.10;99.90;;;;;;5070551;28;20055;-80
2022/04/13 04:57:48;;;;;;;25.92;16.35;;;12.00;99.90;;;;;;5053627;28;20515;-81
2022/04/13 05:00:18;;;;;;;24.95;15.63;;;12.10;99.90;;;;;;5054562;28;20090;-81
2022/04/13 05:02:48;;;;;;;24.52;15.30;;;12.00;99.90;;;;;;5070535;28;20056;-82
2022/04/13 05:05:14;;;;;;;23.13;15.95;;;12.00;99.90;;;;;;5054429;28;20492;-80
2022/04/13 05:07:40;;;;;;;23.77;16.85;;;12.00;99.90;;;;;;5070490;28;20405;-80
2022/04/13 05:10:06;;;;;;;23.58;16.00;;;12.00;99.90;;;;;;5053769;28;20441;-81
2022/04/13 05:12:37;;;;;;;21.98;15.68;;;11.90;99.90;;;;;;5071773;28;20105;-80
2022/04/13 05:15:03;;;;;;;25.95;15.95;;;11.90;99.90;;;;;;5054953;28;20067;-80
2022/04/13 05:17:28;;;;;;;23.02;15.82;;;11.90;99.90;;;;;;5086871;28;20048;-80
2022/04/13 05:19:54;;;;;;;22.27;14.65;;;11.90;99.90;;;;;;5070063;28;20040;-81
2022/04/13 05:22:20;;;;;;;26.90;16.02;;;11.90;99.90;;;;;;5071548;28;20044;-80
2022/04/13 05:24:46;;;;;;;25.02;15.82;;;11.90;99.90;;;;;;5070520;28;20427;-80
2022/04/13 05:27:12;;;;;;;23.38;15.20;;;12.00;99.90;;;;;;5071318;28;20056;-80
2022/04/13 05:29:37;;;;;;;22.23;15.30;;;12.00;99.90;;;;;;5069788;28;20052;-81
2022/04/13 05:32:03;;;;;;;22.58;15.50;;;12.00;99.90;;;;;;5070786;28;20067;-81
2022/04/13 05:34:29;;;;;;;25.30;15.93;;;12.10;99.90;;;;;;5069654;28;20507;-81
2022/04/13 05:36:56;;;;;;;24.02;15.57;;;12.20;99.90;;;;;;5052825;28;20048;-81
2022/04/13 05:39:22;;;;;;;25.52;15.90;;;12.20;99.90;;;;;;5070131;28;20052;-80
2022/04/13 05:41:47;;;;;;;23.45;15.30;;;12.40;99.90;;;;;;5069809;28;20048;-80
2022/04/13 05:44:13;;;;;;;24.38;15.90;;;12.50;99.90;;;;;;5071366;28;20558;-80
2022/04/13 05:46:39;;;;;;;26.10;14.98;;;12.60;99.90;;;;;;5070843;28;20392;-81
2022/04/13 05:49:04;;;;;;;24.77;15.05;;;12.70;99.90;;;;;;5071830;28;20045;-81
2022/04/13 05:51:30;;;;;;;21.02;15.02;;;12.80;99.90;;;;;;5070746;28;20056;-81
2022/04/13 05:53:56;;;;;;;23.40;15.27;;;12.90;99.90;;;;;;5071437;28;20071;-80
2022/04/13 05:56:21;;;;;;;22.40;15.95;;;13.10;99.90;;;;;;5071711;28;20053;-80
2022/04/13 05:58:47;;;;;;;22.42;14.50;;;13.10;99.90;;;;;;5071006;28;20053;-79
2022/04/13 06:01:13;;;;;;;22.30;15.57;;;13.10;99.90;;;;;;5069659;28;20078;-80
2022/04/13 06:03:38;;;;;;;22.33;14.90;;;13.20;99.90;;;;;;5072126;28;20044;-81
2022/04/13 06:06:04;;;;;;;22.60;15.43;;;13.20;99.90;;;;;;5078188;28;20568;-81
2022/04/13 06:08:30;;;;;;;22.30;15.35;;;13.20;99.90;;;;;;5083009;28;20063;-80
2022/04/13 06:10:55;;;;;;;24.90;15.70;;;13.30;99.90;;;;;;5071094;28;20055;-81
2022/04/13 06:13:21;;;;;;;22.13;15.13;;;13.20;99.90;;;;;;5072608;28;20507;-80
2022/04/13 06:15:47;;;;;;;21.67;14.82;;;13.30;99.90;;;;;;5071093;28;20094;-80
2022/04/13 06:18:12;;;;;;;22.23;15.10;;;13.30;99.90;;;;;;5070822;28;20059;-80
2022/04/13 06:20:38;;;;;;;21.95;16.00;;;13.40;99.90;;;;;;5070677;28;20404;-81
2022/04/13 06:23:04;;;;;;;22.73;15.80;;;13.50;99.90;;;;;;5053113;28;20048;-79
2022/04/13 06:25:30;;;;;;;25.90;17.15;;;13.60;99.90;;;;;;5071423;28;20480;-81
2022/04/13 06:27:56;;;;;;;24.10;16.08;;;13.80;99.90;;;;;;5087174;28;20058;-80
2022/04/13 06:30:22;;;;;;;21.75;16.30;;;14.10;99.90;;;;;;5054028;28;20056;-80
2022/04/13 06:32:48;;;;;;;21.90;15.05;;;14.60;99.90;;;;;;5052935;28;20399;-80
2022/04/13 06:35:15;;;;;;;24.92;15.68;;;15.30;99.90;;;;;;5071674;28;20090;-80
2022/04/13 06:37:42;;;;;;;24.88;15.30;;;16.00;99.90;;;;;;5036428;28;20056;-80
2022/04/13 06:40:08;;;;;;;21.02;15.35;;;16.10;99.90;;;;;;5070181;28;20048;-81
2022/04/13 06:42:37;;;;;;;23.75;16.42;;;16.30;99.90;;;;;;5069994;28;20914;-81
2022/04/13 06:45:04;;;;;;;24.13;16.00;;;16.60;99.90;;;;;;5027406;28;20049;-80
2022/04/13 06:47:30;;;;;;;24.38;15.90;;;16.60;99.90;;;;;;5075710;28;20053;-80
2022/04/13 06:49:55;;;;;;;23.17;16.98;;;17.30;99.90;;;;;;5069494;28;20048;-81
2022/04/13 06:52:21;;;;;;;21.73;14.05;;;17.50;99.90;;;;;;5069775;28;20044;-81
2022/04/13 06:54:47;;;;;;;22.55;15.38;;;17.90;99.90;;;;;;5073947;28;20471;-80
2022/04/13 06:57:12;;;;;;;21.88;14.45;;;17.70;99.90;;;;;;5072990;28;20049;-80
2022/04/13 06:59:38;;;;;;;18.73;14.02;;;17.70;99.90;;;;;;5074671;28;20041;-79
2022/04/13 07:02:06;;;;;;;24.77;14.68;;;17.20;99.90;;;;;;5075306;28;20052;-80
2022/04/13 07:04:33;;;;;;;18.58;13.63;;;17.30;99.90;;;;;;5057470;28;20040;-80
2022/04/13 07:07:00;;;;;;;19.50;13.48;;;17.00;99.90;;;;;;5073276;28;20532;-79
2022/04/13 07:09:26;;;;;;;22.17;14.88;;;16.80;99.90;;;;;;5057412;28;20055;-80
2022/04/13 07:11:51;;;;;;;27.75;14.43;;;16.70;99.90;;;;;;5073966;28;20036;-80
2022/04/13 07:14:17;;;;;;;17.85;13.05;;;16.70;99.90;;;;;;5074672;28;20052;-80
2022/04/13 07:16:43;;;;;;;19.98;13.52;;;16.30;99.90;;;;;;5073238;28;20499;-80
2022/04/13 07:19:09;;;;;;;19.02;12.73;;;16.60;99.90;;;;;;5074605;28;20036;-80
2022/04/13 07:21:34;;;;;;;20.88;13.93;;;17.20;99.90;;;;;;5074801;28;20063;-80
2022/04/13 07:24:00;;;;;;;19.10;13.02;;;17.70;99.90;;;;;;5074738;28;20057;-80
2022/04/13 07:26:26;;;;;;;17.13;12.10;;;18.00;99.90;;;;;;5074610;28;20048;-80
2022/04/13 07:28:53;;;;;;;16.33;12.88;;;18.60;99.90;;;;;;5073343;28;20041;-80
2022/04/13 07:31:19;;;;;;;18.40;13.43;;;19.10;99.90;;;;;;5074487;28;20047;-80
2022/04/13 07:33:44;;;;;;;20.30;13.27;;;19.40;99.90;;;;;;5074839;28;20041;-79
2022/04/13 07:36:12;;;;;;;18.33;12.82;;;20.00;99.90;;;;;;5073955;28;20083;-79
2022/04/13 07:38:37;;;;;;;18.98;12.07;;;19.70;99.90;;;;;;5073258;28;20048;-79
2022/04/13 07:41:04;;;;;;;19.98;12.10;;;19.90;99.90;;;;;;5075448;28;20052;-78
2022/04/13 07:43:30;;;;;;;19.80;12.05;;;19.90;99.90;;;;;;5073373;28;20041;-79
2022/04/13 07:45:56;;;;;;;16.25;11.68;;;20.10;99.90;;;;;;5072883;28;20044;-79
2022/04/13 07:48:21;;;;;;;15.57;11.77;;;20.80;99.90;;;;;;5074499;28;20047;-79
2022/04/13 07:50:47;;;;;;;16.65;11.55;;;20.90;99.90;;;;;;5072817;28;20036;-80
2022/04/13 07:53:13;;;;;;;18.10;12.52;;;20.20;99.90;;;;;;5071718;28;20052;-79
2022/04/13 07:55:39;;;;;;;18.08;11.95;;;19.30;99.90;;;;;;5072138;28;20045;-80
2022/04/13 07:58:05;;;;;;;14.80;10.50;;;18.60;99.90;;;;;;5071604;28;20182;-79
2022/04/13 08:00:31;;;;;;;14.90;10.70;;;17.80;99.90;;;;;;5071803;28;20048;-81
2022/04/13 08:02:56;;;;;;;16.75;10.95;;;17.20;99.90;;;;;;5073011;28;20044;-81
2022/04/13 08:05:23;;;;;;;18.73;11.18;;;17.30;99.90;;;;;;5070982;28;20044;-80
2022/04/13 08:07:48;;;;;;;15.43;10.77;;;17.10;99.90;;;;;;5054828;28;20083;-79
2022/04/13 08:10:15;;;;;;;15.32;10.93;;;17.20;99.90;;;;;;5072313;28;20072;-79
2022/04/13 08:12:41;;;;;;;15.95;11.10;;;17.10;99.90;;;;;;5072412;28;20070;-80
2022/04/13 08:15:07;;;;;;;18.88;12.02;;;16.80;99.90;;;;;;5072545;28;20045;-79
2022/04/13 08:17:33;;;;;;;14.85;11.63;;;16.60;99.90;;;;;;5072026;28;20055;-80
2022/04/13 08:19:59;;;;;;;17.38;10.95;;;16.80;99.90;;;;;;5072383;28;20041;-78
2022/04/13 08:22:28;;;;;;;18.92;12.18;;;16.70;99.90;;;;;;5073178;28;20040;-79
2022/04/13 08:24:54;;;;;;;21.05;11.43;;;16.70;99.90;;;;;;5073918;28;20040;-80
2022/04/13 08:27:19;;;;;;;15.32;10.00;;;16.80;99.90;;;;;;5088277;28;20070;-78
2022/04/13 08:29:48;;;;;;;16.38;9.85;;;16.70;99.90;;;;;;5067385;28;20101;-80
2022/04/13 08:32:18;;;;;;;14.93;9.23;;;16.70;99.90;;;;;;5079961;28;20051;-79
2022/04/13 08:34:45;;;;;;;14.70;9.52;;;17.10;99.90;;;;;;5064030;28;20048;-78
2022/04/13 08:37:11;;;;;;;15.55;10.07;;;17.00;99.90;;;;;;5056704;28;20072;-79
2022/04/13 08:39:39;;;;;;;15.82;10.15;;;17.30;99.90;;;;;;5047948;28;20604;-78
2022/04/13 08:42:24;;;;;;;12.45;9.27;;;17.60;99.90;;;;;;5078307;28;20503;-78
2022/04/13 08:44:50;;;;;;;15.05;10.65;;;17.40;99.90;;;;;;5087887;28;20040;-79
2022/04/13 08:47:23;;;;;;;17.88;10.05;;;17.40;99.90;;;;;;5051208;28;20052;-79
2022/04/13 08:49:51;;;;;;;14.52;9.38;;;17.60;99.90;;;;;;5068402;28;20045;-78
2022/04/13 08:52:24;;;;;;;13.63;8.63;;;17.60;99.90;;;;;;5069968;28;20052;-80
2022/04/13 08:55:03;;;;;;;16.13;9.68;;;18.60;99.90;;;;;;5082300;28;20044;-78
2022/04/13 08:57:29;;;;;;;15.05;8.68;;;19.60;99.90;;;;;;5072898;28;20106;-79
2022/04/13 09:00:02;;;;;;;13.73;8.70;;;20.30;99.90;;;;;;5073087;28;20119;-80
2022/04/13 09:02:53;;;;;;;12.98;8.82;;;20.90;99.90;;;;;;5061933;28;20052;-79
2022/04/13 09:05:28;;;;;;;10.98;7.85;;;20.70;99.90;;;;;;5072033;28;20086;-80
2022/04/13 09:08:19;;;;;;;14.52;7.85;;;20.60;99.90;;;;;;5079842;28;20051;-78
2022/04/13 09:10:52;;;;;;;12.43;7.80;;;21.30;99.90;;;;;;5069142;28;20047;-78
2022/04/13 09:13:20;;;;;;;9.68;7.50;;;21.20;99.90;;;;;;5064491;28;20109;-80
2022/04/13 09:15:46;;;;;;;13.05;7.40;;;20.70;99.90;;;;;;5087290;28;20045;-78
2022/04/13 09:18:12;;;;;;;11.23;7.78;;;21.00;99.90;;;;;;5085875;28;20059;-77
2022/04/13 09:20:38;;;;;;;11.27;6.72;;;21.30;99.90;;;;;;5081687;28;20063;-79
2022/04/13 09:23:04;;;;;;;7.70;6.10;;;21.50;99.90;;;;;;5081694;28;20381;-80
2022/04/13 09:25:30;;;;;;;9.55;5.68;;;21.30;99.90;;;;;;5078699;28;20091;-77
2022/04/13 09:28:00;;;;;;;8.35;5.25;;;21.40;99.90;;;;;;5073856;28;20055;-79
2022/04/13 09:30:26;;;;;;;8.70;5.45;;;21.60;99.90;;;;;;5072603;28;20127;-79
2022/04/13 09:32:52;;;;;;;9.43;5.30;;;21.70;99.90;;;;;;5071732;28;20045;-78
2022/04/13 09:35:18;;;;;;;7.78;4.20;;;22.10;99.90;;;;;;5071154;28;20064;-78
2022/04/13 09:37:44;;;;;;;6.95;5.22;;;22.50;99.90;;;;;;5071417;28;20112;-78
2022/04/13 09:40:23;;;;;;;9.98;5.28;;;22.00;99.90;;;;;;5070603;28;20186;-79
2022/04/13 09:42:49;;;;;;;7.15;5.05;;;22.00;99.90;;;;;;5071308;28;20052;-78
2022/04/13 09:45:15;;;;;;;8.68;5.03;;;22.50;99.90;;;;;;5071745;28;20437;-79
2022/04/13 09:47:45;;;;;;;6.43;4.85;;;22.80;99.90;;;;;;5072444;28;20098;-79
2022/04/13 09:50:11;;;;;;;8.27;5.90;;;22.50;99.90;;;;;;5071132;28;20045;-79
2022/04/13 09:52:37;;;;;;;13.20;6.45;;;22.10;99.90;;;;;;5054183;28;20052;-79
2022/04/13 09:55:06;;;;;;;11.02;5.95;;;22.20;99.90;;;;;;5070544;28;20071;-79
2022/04/13 09:57:32;;;;;;;8.65;5.60;;;22.30;99.90;;;;;;5072234;28;20049;-79
2022/04/13 10:00:03;;;;;;;9.43;5.75;;;22.40;99.90;;;;;;5071380;28;20037;-78
2022/04/13 10:02:41;;;;;;;9.63;5.90;;;22.30;99.90;;;;;;5070202;28;20127;-79
2022/04/13 10:05:08;;;;;;;10.43;5.60;;;21.70;99.90;;;;;;5072244;28;20532;-79
2022/04/13 10:07:34;;;;;;;9.05;5.80;;;22.20;99.90;;;;;;5071362;28;20044;-78
2022/04/13 10:10:01;;;;;;;8.95;4.85;;;21.90;99.90;;;;;;5072229;28;20032;-79
2022/04/13 10:12:46;;;;;;;8.70;4.50;;;22.60;99.90;;;;;;5084347;28;20052;-80
2022/04/13 10:15:12;;;;;;;8.50;4.68;;;23.00;99.90;;;;;;5040148;28;20484;-79
2022/04/13 10:17:39;;;;;;;6.60;4.35;;;23.30;99.90;;;;;;5063478;28;20052;-78
2022/04/13 10:20:05;;;;;;;6.60;4.30;;;23.70;99.90;;;;;;5070286;28;20033;-79
2022/04/13 10:22:30;;;;;;;10.25;4.47;;;23.80;99.90;;;;;;5077906;28;20052;-78
2022/04/13 10:24:57;;;;;;;5.93;4.38;;;24.60;99.90;;;;;;5070475;28;20043;-79
2022/04/13 10:27:24;;;;;;;5.90;4.32;;;23.40;99.90;;;;;;5036576;28;20128;-80
2022/04/13 10:29:50;;;;;;;4.72;3.80;;;23.60;99.90;;;;;;5070196;28;20450;-79
2022/04/13 10:32:16;;;;;;;7.88;5.13;;;23.20;99.90;;;;;;5068000;28;20044;-80
2022/04/13 10:34:44;;;;;;;6.95;4.57;;;22.90;99.90;;;;;;5070885;28;20044;-77
2022/04/13 10:37:11;;;;;;;6.13;4.32;;;22.70;99.90;;;;;;5069269;28;20115;-79
2022/04/13 10:39:37;;;;;;;9.55;5.15;;;23.00;99.90;;;;;;5070219;28;20061;-77
2022/04/13 10:42:04;;;;;;;9.77;6.00;;;23.60;99.90;;;;;;5070121;28;20369;-78
2022/04/13 10:44:48;;;;;;;7.47;5.50;;;23.10;99.90;;;;;;5069513;28;20071;-78
2022/04/13 10:47:18;;;;;;;7.13;4.68;;;22.70;99.90;;;;;;5069935;28;20067;-77
2022/04/13 10:49:57;;;;;;;8.23;4.45;;;23.60;99.90;;;;;;5070576;28;20499;-78
2022/04/13 10:53:00;;;;;;;9.77;4.60;;;23.40;99.90;;;;;;5053911;28;20500;-78
2022/04/13 10:55:27;;;;;;;7.47;4.50;;;23.00;99.90;;;;;;5050809;28;20045;-79
2022/04/13 10:57:54;;;;;;;5.75;3.65;;;23.00;99.90;;;;;;5053955;28;20282;-78
2022/04/13 11:00:20;;;;;;;7.10;4.32;;;22.90;99.90;;;;;;5069829;28;20088;-78
2022/04/13 11:02:53;;;;;;;10.18;4.15;;;22.00;99.90;;;;;;5070244;28;20531;-78
2022/04/13 11:05:18;;;;;;;8.32;3.85;;;22.20;99.90;;;;;;5069370;28;20052;-77
2022/04/13 11:07:44;;;;;;;5.72;3.22;;;22.50;99.90;;;;;;5071345;28;20048;-78
2022/04/13 11:10:19;;;;;;;4.35;3.10;;;22.00;99.90;;;;;;5071083;28;20032;-79
2022/04/13 11:12:45;;;;;;;6.57;3.83;;;21.30;99.90;;;;;;5067707;28;20041;-78
2022/04/13 11:15:11;;;;;;;7.78;4.22;;;21.80;99.90;;;;;;5069903;28;20036;-78
2022/04/13 11:17:40;;;;;;;7.60;4.20;;;21.60;99.90;;;;;;5070552;28;20056;-78
2022/04/13 11:20:18;;;;;;;6.70;3.78;;;21.40;99.90;;;;;;5068453;28;20044;-78
2022/04/13 11:22:44;;;;;;;4.90;3.60;;;21.40;99.90;;;;;;5067882;28;20056;-78
2022/04/13 11:25:09;;;;;;;5.43;4.03;;;21.10;99.90;;;;;;5070569;28;20580;-79
2022/04/13 11:27:54;;;;;;;6.53;4.60;;;20.60;99.90;;;;;;5078719;28;20048;-79
2022/04/13 11:30:21;;;;;;;7.68;4.40;;;20.80;99.90;;;;;;5079029;28;20045;-77
2022/04/13 11:32:46;;;;;;;5.78;4.13;;;20.60;99.90;;;;;;5073886;28;20045;-77
2022/04/13 11:35:22;;;;;;;5.80;4.32;;;20.90;99.90;;;;;;5069256;28;20070;-76
2022/04/13 11:38:01;;;;;;;5.10;3.92;;;20.70;99.90;;;;;;5070322;28;20056;-78
2022/04/13 11:40:26;;;;;;;6.45;3.65;;;20.50;99.90;;;;;;5071248;28;20392;-77
2022/04/13 11:42:52;;;;;;;5.85;3.40;;;20.60;99.90;;;;;;5073495;28;20040;-78
2022/04/13 11:45:19;;;;;;;8.50;2.95;;;20.50;99.90;;;;;;5055920;28;20048;-78
2022/04/13 11:47:51;;;;;;;5.32;3.08;;;20.40;99.90;;;;;;5055826;28;20119;-77
2022/04/13 11:50:19;;;;;;;4.63;2.63;;;20.40;99.90;;;;;;5070956;28;20489;-78
2022/04/13 11:52:48;;;;;;;6.25;2.80;;;20.60;99.90;;;;;;5073313;28;20036;-76
2022/04/13 11:55:27;;;;;;;6.93;2.75;;;20.60;99.90;;;;;;5056759;28;20045;-78
2022/04/13 11:58:04;;;;;;;7.03;2.80;;;20.60;99.90;;;;;;5074147;28;20075;-77
2022/04/13 12:00:38;;;;;;;4.45;2.40;;;20.60;99.90;;;;;;5071817;28;20074;-77
2022/04/13 12:03:29;;;;;;;6.63;2.78;;;20.40;99.90;;;;;;5072272;28;20464;-78
2022/04/13 12:06:22;;;;;;;5.13;2.40;;;20.40;99.90;;;;;;5071671;28;20114;-78
2022/04/13 12:08:55;;;;;;;4.82;2.35;;;20.00;99.90;;;;;;5057623;28;20037;-77
2022/04/13 12:11:41;;;;;;;5.40;2.30;;;20.10;99.90;;;;;;5055926;28;20103;-77
2022/04/13 12:14:08;;;;;;;4.38;2.83;;;20.10;99.90;;;;;;5071885;28;20052;-77
2022/04/13 12:16:36;;;;;;;7.40;3.20;;;20.10;99.90;;;;;;5055615;28;20051;-77
2022/04/13 12:19:09;;;;;;;5.10;2.90;;;20.20;99.90;;;;;;5039909;28;20040;-77
2022/04/13 12:21:36;;;;;;;8.43;3.17;;;20.40;99.90;;;;;;5072397;28;20114;-78
2022/04/13 12:24:07;;;;;;;7.32;3.38;;;20.30;99.90;;;;;;5055490;28;20066;-77
2022/04/13 12:26:38;;;;;;;6.07;3.20;;;20.00;99.90;;;;;;5055447;28;20094;-78
2022/04/13 12:29:11;;;;;;;10.55;3.78;;;20.00;99.90;;;;;;5073300;28;20083;-77
2022/04/13 12:32:04;;;;;;;12.43;4.47;;;20.00;99.90;;;;;;5070899;28;20043;-77
2022/04/13 12:34:29;;;;;;;10.10;4.35;;;20.10;99.90;;;;;;5068711;28;20515;-78
2022/04/13 12:36:55;;;;;;;9.70;5.35;;;19.90;99.90;;;;;;5073417;28;20040;-79